createdAt,value
2022-10-06T00:00:50.965Z,16.07
2022-10-06T00:03:34.406Z,16.11
2022-10-06T00:06:04.736Z,16.33
2022-10-06T00:08:33.454Z,16.30
2022-10-06T00:11:00.889Z,16.37
2022-10-06T00:13:29.344Z,16.43
2022-10-06T00:15:56.673Z,16.38
2022-10-06T00:18:24.408Z,16.43
2022-10-06T00:20:56.200Z,16.44
2022-10-06T00:23:25.471Z,16.27
2022-10-06T00:25:53.290Z,16.47
2022-10-06T00:28:21.020Z,16.51
2022-10-06T00:30:48.444Z,16.32
2022-10-06T00:33:17.724Z,16.14
2022-10-06T00:35:45.331Z,16.09
2022-10-06T00:38:15.940Z,16.11
2022-10-06T00:40:46.266Z,16.21
2022-10-06T00:43:55.816Z,16.35
2022-10-06T00:46:34.412Z,16.34
2022-10-06T00:49:05.179Z,16.29
2022-10-06T00:51:34.453Z,16.38
2022-10-06T00:54:02.853Z,16.20
2022-10-06T00:56:31.566Z,16.28
2022-10-06T00:58:59.063Z,16.35
2022-10-06T01:01:27.106Z,16.35
2022-10-06T01:03:59.519Z,16.25
2022-10-06T01:06:27.114Z,16.27
2022-10-06T01:08:54.701Z,16.19
2022-10-06T01:11:22.081Z,16.26
2022-10-06T01:13:51.230Z,16.35
2022-10-06T01:16:20.640Z,16.32
2022-10-06T01:18:48.174Z,16.35
2022-10-06T01:21:23.984Z,16.33
2022-10-06T01:23:52.899Z,16.29
2022-10-06T01:26:23.817Z,16.17
2022-10-06T01:28:51.699Z,16.04
2022-10-06T01:31:19.487Z,16.05
2022-10-06T01:33:51.457Z,16.06
2022-10-06T01:36:19.069Z,16.06
2022-10-06T01:38:46.384Z,16.02
2022-10-06T01:41:15.583Z,16.05
2022-10-06T01:43:42.882Z,15.99
2022-10-06T01:46:10.055Z,15.88
2022-10-06T01:48:38.018Z,15.80
2022-10-06T01:51:05.679Z,15.91
2022-10-06T01:53:33.450Z,15.93
2022-10-06T01:56:01.199Z,15.90
2022-10-06T01:58:30.335Z,15.86
2022-10-06T02:00:58.235Z,15.88
2022-10-06T02:03:26.128Z,15.93
2022-10-06T02:05:56.370Z,16.04
2022-10-06T02:08:23.742Z,16.05
2022-10-06T02:10:51.711Z,16.11
2022-10-06T02:13:19.059Z,16.26
2022-10-06T02:15:47.874Z,16.24
2022-10-06T02:18:15.637Z,16.13
2022-10-06T02:20:43.953Z,15.94
2022-10-06T02:23:11.235Z,16.03
2022-10-06T02:25:38.734Z,15.90
2022-10-06T02:28:06.062Z,15.74
2022-10-06T02:30:33.601Z,15.74
2022-10-06T02:33:02.776Z,15.68
2022-10-06T02:35:30.122Z,15.77
2022-10-06T02:37:57.416Z,15.67
2022-10-06T02:40:24.948Z,15.69
2022-10-06T02:42:52.291Z,15.70
2022-10-06T02:45:19.532Z,15.52
2022-10-06T02:47:47.472Z,15.49
2022-10-06T02:50:16.363Z,15.58
2022-10-06T02:52:43.562Z,15.50
2022-10-06T02:55:11.760Z,15.50
2022-10-06T02:57:39.797Z,15.41
2022-10-06T03:00:08.597Z,15.51
2022-10-06T03:02:36.627Z,15.43
2022-10-06T03:05:04.669Z,15.38
2022-10-06T03:07:33.639Z,15.43
2022-10-06T03:10:01.424Z,15.54
2022-10-06T03:12:28.825Z,15.34
2022-10-06T03:14:56.172Z,15.31
2022-10-06T03:17:23.795Z,15.39
2022-10-06T03:19:51.127Z,15.41
2022-10-06T03:22:18.707Z,15.41
2022-10-06T03:24:48.441Z,15.29
2022-10-06T03:27:18.122Z,15.31
2022-10-06T03:29:45.351Z,15.24
2022-10-06T03:32:13.111Z,15.14
2022-10-06T03:34:40.602Z,15.25
2022-10-06T03:37:08.128Z,15.26
2022-10-06T03:39:35.677Z,15.32
2022-10-06T03:42:04.480Z,15.32
2022-10-06T03:44:31.739Z,15.16
2022-10-06T03:46:59.496Z,15.14
2022-10-06T03:49:27.031Z,15.15
2022-10-06T03:51:54.589Z,15.12
2022-10-06T03:54:22.321Z,15.07
2022-10-06T03:56:49.554Z,14.95
2022-10-06T03:59:18.304Z,15.06
2022-10-06T04:01:48.333Z,14.95
2022-10-06T04:04:15.626Z,14.96
2022-10-06T04:06:44.122Z,14.98
2022-10-06T04:09:15.605Z,14.99
2022-10-06T04:11:44.879Z,15.00
2022-10-06T04:14:14.299Z,14.89
2022-10-06T04:16:44.635Z,14.82
2022-10-06T04:19:14.305Z,14.82
2022-10-06T04:21:43.548Z,14.85
2022-10-06T04:24:11.580Z,14.90
2022-10-06T04:26:40.954Z,14.80
2022-10-06T04:29:08.624Z,14.80
2022-10-06T04:31:37.629Z,14.83
2022-10-06T04:34:07.559Z,15.04
2022-10-06T04:36:37.179Z,14.97
2022-10-06T04:39:05.864Z,15.10
2022-10-06T04:41:35.132Z,15.13
2022-10-06T04:44:04.115Z,15.08
2022-10-06T04:46:47.922Z,15.08
2022-10-06T04:49:20.388Z,15.09
2022-10-06T04:51:48.793Z,15.02
2022-10-06T04:54:15.996Z,14.89
2022-10-06T04:56:43.717Z,14.77
2022-10-06T04:59:11.169Z,14.78
2022-10-06T05:01:38.362Z,14.73
2022-10-06T05:04:06.689Z,14.65
2022-10-06T05:06:37.117Z,14.61
2022-10-06T05:09:07.070Z,14.66
2022-10-06T05:11:34.916Z,14.72
2022-10-06T05:14:02.128Z,14.74
2022-10-06T05:16:31.070Z,14.62
2022-10-06T05:18:59.176Z,14.74
2022-10-06T05:21:28.208Z,15.03
2022-10-06T05:23:57.344Z,15.01
2022-10-06T05:26:27.080Z,15.03
2022-10-06T05:28:54.843Z,15.19
2022-10-06T05:31:24.372Z,15.26
2022-10-06T05:33:51.723Z,15.42
2022-10-06T05:36:21.095Z,15.48
2022-10-06T05:38:48.960Z,15.53
2022-10-06T05:41:19.329Z,15.44
2022-10-06T05:43:47.514Z,15.28
2022-10-06T05:46:23.249Z,15.32
2022-10-06T05:48:52.182Z,15.20
2022-10-06T05:51:21.046Z,15.40
2022-10-06T05:53:49.088Z,15.37
2022-10-06T05:56:21.037Z,15.50
2022-10-06T05:58:49.842Z,15.53
2022-10-06T06:01:19.892Z,15.94
2022-10-06T06:03:49.115Z,16.07
2022-10-06T06:06:21.541Z,16.10
2022-10-06T06:08:52.307Z,15.96
2022-10-06T06:11:21.559Z,16.24
2022-10-06T06:13:49.220Z,16.02
2022-10-06T06:16:16.552Z,16.15
2022-10-06T06:18:44.650Z,16.33
2022-10-06T06:21:11.836Z,16.62
2022-10-06T06:23:40.988Z,16.69
2022-10-06T06:26:10.874Z,16.81
2022-10-06T06:28:39.529Z,16.72
2022-10-06T06:31:08.589Z,16.74
2022-10-06T06:33:37.329Z,16.78
2022-10-06T06:36:11.583Z,16.72
2022-10-06T06:38:39.496Z,16.79
2022-10-06T06:41:14.422Z,16.93
2022-10-06T06:43:43.772Z,17.11
2022-10-06T06:46:11.605Z,17.11
2022-10-06T06:48:39.514Z,17.18
2022-10-06T06:51:07.448Z,17.32
2022-10-06T06:53:35.097Z,17.46
2022-10-06T06:56:02.927Z,17.65
2022-10-06T06:58:30.516Z,17.99
2022-10-06T07:01:07.328Z,18.21
2022-10-06T07:03:59.322Z,18.51
2022-10-06T07:06:27.788Z,18.91
2022-10-06T07:08:57.152Z,18.94
2022-10-06T07:11:26.851Z,18.86
2022-10-06T07:13:55.190Z,18.84
2022-10-06T07:16:24.690Z,19.05
2022-10-06T07:18:51.880Z,19.02
2022-10-06T07:21:19.230Z,19.11
2022-10-06T07:23:50.777Z,18.96
2022-10-06T07:26:18.283Z,18.97
2022-10-06T07:28:45.927Z,18.87
2022-10-06T07:31:13.616Z,18.82
2022-10-06T07:33:42.756Z,18.81
2022-10-06T07:36:10.419Z,18.84
2022-10-06T07:38:37.752Z,18.77
2022-10-06T07:41:18.837Z,18.61
2022-10-06T07:43:47.358Z,18.81
2022-10-06T07:46:14.947Z,18.77
2022-10-06T07:48:43.648Z,18.89
2022-10-06T07:51:14.074Z,18.90
2022-10-06T07:53:41.419Z,18.90
2022-10-06T07:56:08.999Z,18.96
2022-10-06T07:58:36.943Z,18.96
2022-10-06T08:01:08.972Z,18.97
2022-10-06T08:03:37.566Z,18.90
2022-10-06T08:06:07.631Z,18.95
2022-10-06T08:08:35.094Z,19.07
2022-10-06T08:11:02.602Z,19.16
2022-10-06T08:13:30.913Z,19.16
2022-10-06T08:16:04.698Z,19.15
2022-10-06T08:18:48.217Z,19.26
2022-10-06T08:21:18.817Z,19.06
2022-10-06T08:23:47.830Z,18.91
2022-10-06T08:26:17.413Z,18.97
2022-10-06T08:28:45.736Z,19.08
2022-10-06T08:31:14.545Z,19.04
2022-10-06T08:33:42.534Z,19.12
2022-10-06T08:36:12.329Z,19.15
2022-10-06T08:38:41.738Z,19.18
2022-10-06T08:41:21.205Z,19.27
2022-10-06T08:43:56.111Z,19.54
2022-10-06T08:46:26.422Z,19.78
2022-10-06T08:48:54.135Z,20.05
2022-10-06T08:51:39.629Z,20.15
2022-10-06T08:54:14.205Z,20.51
2022-10-06T08:56:53.585Z,20.50
2022-10-06T08:59:21.637Z,20.63
2022-10-06T09:01:51.761Z,20.59
2022-10-06T09:04:23.310Z,20.54
2022-10-06T09:06:54.456Z,20.33
2022-10-06T09:09:40.775Z,20.09
2022-10-06T09:12:16.687Z,19.88
2022-10-06T09:14:49.639Z,19.81
2022-10-06T09:17:25.202Z,19.74
2022-10-06T09:19:58.084Z,19.77
2022-10-06T09:22:31.212Z,19.49
2022-10-06T09:25:14.110Z,19.18
2022-10-06T09:27:43.596Z,19.30
2022-10-06T09:30:12.811Z,19.21
2022-10-06T09:32:46.141Z,19.23
2022-10-06T09:35:18.636Z,19.25
2022-10-06T09:37:54.690Z,19.23
2022-10-06T09:40:39.807Z,19.28
2022-10-06T09:43:24.600Z,19.36
2022-10-06T09:45:52.127Z,19.23
2022-10-06T09:48:24.671Z,19.20
2022-10-06T09:51:12.383Z,19.17
2022-10-06T09:53:40.539Z,19.25
2022-10-06T09:56:18.524Z,19.30
2022-10-06T09:58:55.564Z,19.03
2022-10-06T10:01:24.869Z,18.96
2022-10-06T10:04:18.734Z,18.96
2022-10-06T10:06:42.204Z,18.83
2022-10-06T10:09:26.086Z,18.67
2022-10-06T10:12:12.229Z,18.56
2022-10-06T10:14:39.949Z,18.46
2022-10-06T10:17:10.907Z,18.48
2022-10-06T10:19:39.475Z,18.50
2022-10-06T10:22:17.952Z,18.38
2022-10-06T10:24:53.995Z,18.36
2022-10-06T10:27:31.955Z,18.32
2022-10-06T10:30:07.890Z,18.39
2022-10-06T10:32:57.149Z,18.14
2022-10-06T10:35:27.801Z,18.22
2022-10-06T10:38:01.362Z,18.15
2022-10-06T10:40:37.461Z,18.01
2022-10-06T10:43:14.718Z,18.03
2022-10-06T10:45:46.125Z,18.07
2022-10-06T10:48:16.333Z,18.31
2022-10-06T10:50:57.332Z,18.16
2022-10-06T10:53:32.522Z,18.10
2022-10-06T10:56:01.693Z,17.86
2022-10-06T10:58:35.529Z,17.83
2022-10-06T11:01:18.079Z,17.70
2022-10-06T11:03:48.946Z,17.69
2022-10-06T11:06:40.285Z,17.77
2022-10-06T11:09:12.022Z,18.00
2022-10-06T11:11:52.490Z,17.83
2022-10-06T11:14:33.801Z,17.73
2022-10-06T11:17:09.010Z,17.96
2022-10-06T11:19:45.216Z,17.94
2022-10-06T11:22:19.237Z,17.82
2022-10-06T11:25:01.467Z,17.80
2022-10-06T11:27:42.327Z,17.76
2022-10-06T11:30:15.624Z,17.78
2022-10-06T11:32:53.287Z,17.82
2022-10-06T11:35:23.534Z,17.99
2022-10-06T11:37:55.990Z,18.26
2022-10-06T11:40:36.896Z,18.73
2022-10-06T11:43:13.299Z,19.22
2022-10-06T11:45:52.165Z,19.40
2022-10-06T11:48:24.914Z,19.15
2022-10-06T11:50:53.242Z,19.18
2022-10-06T11:53:41.687Z,18.96
2022-10-06T11:56:28.172Z,19.52
2022-10-06T11:59:29.233Z,19.88
2022-10-06T12:02:00.039Z,20.23
2022-10-06T12:04:27.812Z,20.45
2022-10-06T12:06:59.806Z,20.75
2022-10-06T12:09:28.889Z,20.49
2022-10-06T12:11:58.512Z,20.37
2022-10-06T12:17:34.153Z,20.24
2022-10-06T12:20:13.415Z,20.15
2022-10-06T12:22:47.564Z,20.12
2022-10-06T12:25:22.827Z,19.94
2022-10-06T12:28:06.569Z,19.67
2022-10-06T12:30:48.207Z,19.18
2022-10-06T12:33:19.651Z,19.01
2022-10-06T12:35:46.985Z,19.06
2022-10-06T12:38:42.385Z,19.26
2022-10-06T12:41:11.030Z,19.50
2022-10-06T12:43:53.259Z,19.50
2022-10-06T12:46:43.751Z,19.13
2022-10-06T12:49:43.673Z,18.93
2022-10-06T12:52:28.836Z,18.92
2022-10-06T12:55:06.394Z,19.12
2022-10-06T12:57:45.379Z,19.40
2022-10-06T13:02:56.254Z,19.85
2022-10-06T13:05:25.315Z,19.94
2022-10-06T13:07:57.112Z,20.22
2022-10-06T13:10:25.018Z,20.54
2022-10-06T13:12:52.402Z,20.59
2022-10-06T13:15:22.528Z,20.60
2022-10-06T13:17:53.054Z,20.66
2022-10-06T13:20:34.044Z,21.06
2022-10-06T13:23:07.538Z,21.16
2022-10-06T13:25:43.731Z,21.44
2022-10-06T13:28:27.843Z,21.63
2022-10-06T13:30:57.913Z,21.59
2022-10-06T13:33:28.896Z,21.65
2022-10-06T13:35:58.220Z,21.63
2022-10-06T13:38:25.895Z,21.66
2022-10-06T13:41:05.145Z,21.60
2022-10-06T13:43:39.741Z,21.53
2022-10-06T13:46:09.638Z,21.43
2022-10-06T13:48:42.385Z,21.29
2022-10-06T13:51:16.529Z,21.34
2022-10-06T13:53:45.520Z,21.45
2022-10-06T13:56:36.358Z,21.50
2022-10-06T13:59:29.085Z,21.73
2022-10-06T14:01:58.147Z,21.62
2022-10-06T14:04:25.731Z,21.44
2022-10-06T14:06:58.151Z,21.23
2022-10-06T14:09:29.756Z,21.35
2022-10-06T14:12:03.885Z,21.22
2022-10-06T14:14:31.927Z,20.95
2022-10-06T14:16:59.460Z,20.93
2022-10-06T14:19:32.124Z,21.00
2022-10-06T14:22:01.156Z,21.17
2022-10-06T14:24:29.122Z,21.14
2022-10-06T14:27:01.559Z,20.97
2022-10-06T14:29:29.060Z,21.08
2022-10-06T14:32:07.766Z,21.14
2022-10-06T14:34:35.968Z,20.96
2022-10-06T14:37:05.398Z,20.64
2022-10-06T14:39:32.737Z,20.73
2022-10-06T14:42:00.087Z,20.64
2022-10-06T14:44:27.672Z,20.42
2022-10-06T14:46:55.002Z,20.31
2022-10-06T14:49:22.245Z,20.51
2022-10-06T14:51:49.840Z,20.60
2022-10-06T14:54:18.417Z,20.53
2022-10-06T14:56:45.700Z,20.58
2022-10-06T14:59:13.559Z,20.41
2022-10-06T15:01:40.837Z,20.17
2022-10-06T15:04:10.084Z,20.21
2022-10-06T15:06:38.205Z,20.30
2022-10-06T15:09:05.956Z,20.14
2022-10-06T15:11:37.640Z,20.08
2022-10-06T15:14:06.155Z,20.06
2022-10-06T15:16:36.805Z,19.77
2022-10-06T15:19:04.231Z,19.66
2022-10-06T15:21:32.156Z,19.57
2022-10-06T15:24:01.089Z,19.54
2022-10-06T15:26:28.756Z,19.59
2022-10-06T15:28:57.746Z,19.43
2022-10-06T15:31:25.347Z,19.56
2022-10-06T15:33:53.297Z,19.61
2022-10-06T15:36:22.886Z,19.44
2022-10-06T15:38:50.768Z,19.46
2022-10-06T15:41:18.700Z,19.20
2022-10-06T15:43:46.324Z,19.25
2022-10-06T15:46:15.139Z,19.27
2022-10-06T15:48:42.832Z,19.11
2022-10-06T15:51:10.526Z,18.95
2022-10-06T15:53:37.782Z,18.74
2022-10-06T15:56:06.023Z,18.60
2022-10-06T15:58:33.394Z,18.46
2022-10-06T16:01:00.986Z,18.63
2022-10-06T16:03:29.780Z,18.36
2022-10-06T16:05:57.072Z,18.23
2022-10-06T16:08:25.566Z,17.76
2022-10-06T16:10:52.796Z,17.60
2022-10-06T16:13:20.186Z,17.78
2022-10-06T16:15:52.882Z,17.78
2022-10-06T16:18:19.920Z,17.79
2022-10-06T16:20:53.651Z,17.50
2022-10-06T16:23:22.296Z,17.26
2022-10-06T16:25:50.445Z,17.01
2022-10-06T16:28:17.872Z,16.81
2022-10-06T16:30:54.706Z,16.84
2022-10-06T16:33:24.337Z,16.49
2022-10-06T16:35:57.159Z,16.53
2022-10-06T16:38:24.643Z,16.47
2022-10-06T16:40:55.097Z,16.14
2022-10-06T16:43:23.198Z,16.04
2022-10-06T16:46:01.953Z,15.96
2022-10-06T16:48:31.029Z,15.79
2022-10-06T16:51:08.684Z,15.88
2022-10-06T16:53:37.873Z,15.57
2022-10-06T16:56:07.490Z,15.49
2022-10-06T16:58:39.243Z,15.29
2022-10-06T17:01:08.360Z,14.82
2022-10-06T17:03:36.202Z,14.59
2022-10-06T17:06:11.379Z,14.15
2022-10-06T17:08:41.250Z,13.84
2022-10-06T17:11:12.288Z,13.69
2022-10-06T17:13:43.989Z,13.62
2022-10-06T17:16:14.076Z,13.72
2022-10-06T17:18:42.375Z,13.94
2022-10-06T17:21:39.658Z,14.13
2022-10-06T17:24:01.455Z,14.10
2022-10-06T17:26:30.039Z,13.86
2022-10-06T17:28:59.392Z,13.78
2022-10-06T17:31:30.869Z,13.80
2022-10-06T17:33:59.104Z,13.51
2022-10-06T17:36:28.038Z,13.20
2022-10-06T17:38:57.842Z,13.21
2022-10-06T17:41:27.159Z,13.37
2022-10-06T17:43:55.162Z,13.53
2022-10-06T17:46:23.175Z,13.58
2022-10-06T17:48:52.611Z,13.59
2022-10-06T17:51:21.482Z,13.56
2022-10-06T17:53:52.357Z,13.39
2022-10-06T17:56:21.199Z,13.37
2022-10-06T17:58:52.713Z,13.31
2022-10-06T18:01:21.779Z,13.20
2022-10-06T18:03:49.834Z,13.20
2022-10-06T18:06:17.944Z,13.18
2022-10-06T18:08:46.546Z,13.12
2022-10-06T18:11:18.063Z,13.09
2022-10-06T18:13:46.771Z,12.87
2022-10-06T18:16:16.212Z,12.83
2022-10-06T18:18:48.176Z,12.78
2022-10-06T18:21:15.815Z,12.81
2022-10-06T18:23:43.173Z,12.69
2022-10-06T18:26:12.222Z,12.67
2022-10-06T18:28:41.021Z,12.47
2022-10-06T18:31:08.798Z,12.12
2022-10-06T18:36:24.298Z,12.04
2022-10-06T18:38:51.994Z,12.09
2022-10-06T18:41:20.201Z,11.98
2022-10-06T18:43:49.325Z,12.02
2022-10-06T18:46:18.799Z,12.07
2022-10-06T18:48:46.265Z,12.06
2022-10-06T18:51:13.593Z,12.19
2022-10-06T18:53:41.379Z,12.20
2022-10-06T18:56:08.552Z,12.09
2022-10-06T18:58:38.206Z,11.89
2022-10-06T19:01:08.152Z,11.82
2022-10-06T19:03:35.504Z,11.46
2022-10-06T19:06:03.263Z,11.56
2022-10-06T19:08:31.451Z,11.55
2022-10-06T19:11:02.450Z,11.47
2022-10-06T19:13:30.063Z,11.54
2022-10-06T19:15:57.684Z,11.31
2022-10-06T19:18:33.362Z,11.32
2022-10-06T19:21:07.242Z,11.00
2022-10-06T19:23:38.191Z,11.01
2022-10-06T19:26:07.553Z,11.21
2022-10-06T19:28:35.077Z,11.18
2022-10-06T19:31:05.299Z,11.34
2022-10-06T19:33:33.939Z,11.06
2022-10-06T19:36:01.200Z,10.83
2022-10-06T19:38:28.952Z,10.76
2022-10-06T19:40:56.352Z,10.74
2022-10-06T19:43:23.913Z,10.93
2022-10-06T19:45:56.991Z,11.02
2022-10-06T19:48:24.295Z,10.90
2022-10-06T19:50:53.087Z,10.89
2022-10-06T19:53:20.673Z,10.80
2022-10-06T19:55:47.937Z,10.62
2022-10-06T19:58:15.570Z,10.49
2022-10-06T20:00:43.147Z,10.52
2022-10-06T20:03:10.381Z,10.62
2022-10-06T20:05:37.588Z,10.51
2022-10-06T20:08:06.514Z,10.69
2022-10-06T20:10:33.797Z,10.57
2022-10-06T20:13:01.093Z,10.41
2022-10-06T20:15:28.719Z,10.34
2022-10-06T20:17:55.987Z,10.25
2022-10-06T20:20:23.356Z,10.28
2022-10-06T20:22:51.102Z,10.39
2022-10-06T20:25:20.168Z,10.31
2022-10-06T20:27:47.482Z,10.20
2022-10-06T20:30:15.321Z,10.29
2022-10-06T20:32:42.575Z,10.41
2022-10-06T20:35:09.850Z,10.53
2022-10-06T20:37:37.363Z,10.50
2022-10-06T20:40:05.696Z,10.42
2022-10-06T20:42:34.436Z,10.19
2022-10-06T20:45:02.103Z,10.28
2022-10-06T20:47:29.441Z,10.13
2022-10-06T20:49:56.972Z,10.08
2022-10-06T20:52:24.412Z,9.98
2022-10-06T20:54:51.886Z,9.74
2022-10-06T20:57:19.490Z,9.73
2022-10-06T20:59:48.365Z,9.67
2022-10-06T21:02:15.554Z,9.61
2022-10-06T21:04:43.084Z,9.70
2022-10-06T21:07:10.568Z,9.62
2022-10-06T21:09:38.118Z,9.55
2022-10-06T21:12:05.829Z,9.53
2022-10-06T21:14:33.077Z,9.42
2022-10-06T21:17:01.825Z,9.30
2022-10-06T21:19:29.716Z,9.22
2022-10-06T21:21:57.100Z,9.24
2022-10-06T21:24:24.370Z,9.35
2022-10-06T21:26:52.203Z,9.29
2022-10-06T21:29:19.723Z,8.99
2022-10-06T21:31:47.177Z,9.03
2022-10-06T21:34:16.188Z,9.03
2022-10-06T21:36:43.603Z,8.88
2022-10-06T21:39:12.326Z,8.78
2022-10-06T21:41:41.278Z,8.70
2022-10-06T21:44:10.247Z,8.72
2022-10-06T21:46:39.222Z,8.78
2022-10-06T21:49:09.878Z,8.88
2022-10-06T21:51:39.568Z,8.69
2022-10-06T21:54:07.182Z,8.56
2022-10-06T21:56:34.593Z,8.75
2022-10-06T21:59:02.135Z,8.66
2022-10-06T22:04:16.379Z,8.73
2022-10-06T22:06:46.339Z,8.83
2022-10-06T22:09:15.936Z,8.87
2022-10-06T22:11:44.473Z,8.67
2022-10-06T22:14:14.159Z,8.53
2022-10-06T22:16:41.587Z,8.54
2022-10-06T22:19:11.218Z,8.37
2022-10-06T22:21:40.423Z,8.30
2022-10-06T22:24:10.505Z,8.43
2022-10-06T22:26:39.438Z,8.43
2022-10-06T22:29:08.628Z,8.18
2022-10-06T22:31:38.523Z,7.96
2022-10-06T22:34:06.344Z,7.96
2022-10-06T22:36:34.605Z,8.00
2022-10-06T22:39:02.484Z,8.02
2022-10-06T22:41:31.386Z,7.86
2022-10-06T22:43:59.887Z,7.73
2022-10-06T22:46:28.928Z,7.84
2022-10-06T22:48:56.536Z,7.72
2022-10-06T22:51:24.416Z,7.68
2022-10-06T22:53:56.686Z,7.61
2022-10-06T22:56:26.232Z,7.59
2022-10-06T22:58:55.375Z,7.65
2022-10-06T23:01:22.535Z,7.74
2022-10-06T23:03:50.511Z,7.70
2022-10-06T23:06:18.362Z,7.62
2022-10-06T23:08:45.730Z,7.68
2022-10-06T23:11:14.987Z,7.54
2022-10-06T23:13:43.455Z,7.51
2022-10-06T23:16:13.987Z,7.42
2022-10-06T23:18:42.483Z,7.53
2022-10-06T23:21:11.649Z,7.62
2022-10-06T23:23:38.943Z,7.51
2022-10-06T23:26:08.687Z,7.54
2022-10-06T23:28:36.642Z,7.55
2022-10-06T23:31:05.098Z,7.41
2022-10-06T23:33:34.833Z,7.26
2022-10-06T23:36:04.044Z,7.27
2022-10-06T23:38:31.629Z,7.33
2022-10-06T23:40:59.215Z,7.22
2022-10-06T23:43:26.555Z,7.15
2022-10-06T23:45:54.032Z,7.16
2022-10-06T23:48:21.670Z,6.91
2022-10-06T23:50:58.402Z,6.78
2022-10-06T23:53:26.475Z,6.81
2022-10-06T23:55:54.068Z,6.73
2022-10-06T23:58:21.765Z,6.54
